Andover, Iowa
Current Conditions -  °F | °C
As of 3:15 AM on Monday 20 Oct 2014 (Local Time) from KSFY Reporting Station
Scattered Clouds Scattered Clouds  
Wind Chill: 11°   Ceiling: Unl
Heat Index: 11°   Visibility: 10mi
Dew Point:   Wind: 6mph
Humidity: 73%   Direction: 260°W
Pressure: 29.84"   Gusts: NA
Location:  41.98°N, 90.25°W
Report Text: KSFY 200815Z AUTO 26005KT 10SM SCT110 11/06 A2984 RMK AO2 T01080062
Loading
Personal Weather Stations






























Interactive Weather Map
Tropical Storm Tracking
New forecast layout! Learn more

10-Day Weather Forecast

Advertisements
Track Severe Weather on mobile